createdAt,value
2022-08-19T00:04:15.470Z,11.90
2022-08-19T00:09:19.816Z,11.15
2022-08-19T00:14:22.741Z,10.85
2022-08-19T00:19:25.199Z,11.02
2022-08-19T00:24:28.549Z,11.30
2022-08-19T00:29:30.341Z,10.80
2022-08-19T00:34:32.207Z,11.05
2022-08-19T00:39:34.072Z,10.90
2022-08-19T00:44:36.456Z,11.57
2022-08-19T00:49:51.590Z,11.20
2022-08-19T00:54:54.334Z,11.43
2022-08-19T01:00:02.595Z,11.98
2022-08-19T01:05:11.095Z,10.50
2022-08-19T01:10:15.798Z,11.23
2022-08-19T01:15:23.730Z,11.52
2022-08-19T01:20:25.579Z,11.20
2022-08-19T01:25:41.813Z,11.32
2022-08-19T01:30:51.106Z,11.15
2022-08-19T01:35:53.497Z,11.15
2022-08-19T01:40:55.213Z,11.20
2022-08-19T01:45:56.958Z,12.25
2022-08-19T01:50:58.724Z,11.18
2022-08-19T01:56:01.140Z,11.73
2022-08-19T02:01:04.762Z,11.52
2022-08-19T02:06:06.903Z,11.77
2022-08-19T02:11:09.016Z,12.70
2022-08-19T02:16:10.874Z,11.68
2022-08-19T02:21:14.154Z,12.32
2022-08-19T02:26:16.762Z,11.43
2022-08-19T02:31:21.621Z,11.23
2022-08-19T02:36:24.957Z,11.50
2022-08-19T02:41:29.807Z,11.60
2022-08-19T02:46:34.273Z,12.45
2022-08-19T02:56:41.901Z,12.55
2022-08-19T03:06:47.719Z,12.68
2022-08-19T03:11:49.489Z,11.77
2022-08-19T03:16:54.547Z,13.00
2022-08-19T03:21:56.536Z,12.98
2022-08-19T03:26:59.603Z,12.00
2022-08-19T03:32:04.560Z,12.50
2022-08-19T03:37:15.811Z,12.80
2022-08-19T03:42:38.352Z,13.68
2022-08-19T03:47:39.724Z,14.07
2022-08-19T03:52:46.931Z,13.05
2022-08-19T03:57:49.414Z,13.40
2022-08-19T04:02:56.492Z,12.95
2022-08-19T04:08:03.360Z,13.13
2022-08-19T04:13:07.117Z,13.90
2022-08-19T04:18:12.089Z,13.87
2022-08-19T04:23:15.058Z,14.25
2022-08-19T04:28:16.840Z,14.52
2022-08-19T04:33:26.483Z,14.82
2022-08-19T04:38:30.416Z,14.82
2022-08-19T04:43:33.193Z,14.85
2022-08-19T04:48:35.772Z,14.18
2022-08-19T04:53:44.402Z,14.65
2022-08-19T04:58:46.192Z,13.35
2022-08-19T05:03:48.339Z,13.15
2022-08-19T05:08:50.838Z,14.90
2022-08-19T05:13:53.245Z,14.55
2022-08-19T05:19:15.009Z,14.73
2022-08-19T05:24:17.269Z,14.45
2022-08-19T05:29:23.201Z,14.45
2022-08-19T05:34:26.984Z,15.90
2022-08-19T05:39:31.836Z,15.03
2022-08-19T05:44:37.346Z,17.65
2022-08-19T05:49:39.617Z,16.15
2022-08-19T05:54:42.544Z,15.73
2022-08-19T05:59:46.693Z,17.60
2022-08-19T06:04:48.378Z,17.65
2022-08-19T06:10:00.537Z,17.90
2022-08-19T06:15:12.016Z,19.80
2022-08-19T06:20:16.065Z,21.77
2022-08-19T06:25:18.185Z,22.27
2022-08-19T06:30:19.984Z,23.08
2022-08-19T06:35:21.786Z,24.27
2022-08-19T06:40:23.641Z,25.23
2022-08-19T06:45:34.730Z,25.38
2022-08-19T06:50:40.967Z,25.30
2022-08-19T06:55:42.880Z,31.42
2022-08-19T07:00:44.644Z,31.30
2022-08-19T07:05:46.505Z,33.40
2022-08-19T07:10:50.039Z,32.55
2022-08-19T07:15:52.263Z,29.85
2022-08-19T07:21:09.501Z,33.40
2022-08-19T07:26:20.145Z,30.35
2022-08-19T07:31:31.107Z,25.73
2022-08-19T07:36:33.935Z,31.10
2022-08-19T07:41:37.919Z,29.20
2022-08-19T07:46:42.903Z,29.67
2022-08-19T07:51:49.791Z,25.30
2022-08-19T07:56:52.514Z,28.90
2022-08-19T08:01:54.768Z,25.83
2022-08-19T08:07:15.335Z,23.98
2022-08-19T08:12:34.238Z,22.75
2022-08-19T08:17:49.369Z,23.92
2022-08-19T08:23:11.680Z,23.58
2022-08-19T08:28:17.536Z,21.45
2022-08-19T08:33:32.788Z,21.02
2022-08-19T08:38:41.271Z,20.00
2022-08-19T08:43:47.867Z,22.73
2022-08-19T08:49:29.937Z,19.40
2022-08-19T08:54:36.487Z,19.30
2022-08-19T08:59:42.098Z,17.25
2022-08-19T09:04:44.047Z,18.00
2022-08-19T09:09:51.572Z,15.77
2022-08-19T09:15:08.419Z,17.70
2022-08-19T09:20:20.489Z,18.48
2022-08-19T09:25:24.725Z,16.65
2022-08-19T09:30:34.416Z,15.90
2022-08-19T09:35:50.217Z,15.13
2022-08-19T09:40:55.598Z,18.02
2022-08-19T09:45:58.124Z,20.33
2022-08-19T09:51:09.057Z,18.17
2022-08-19T09:56:14.536Z,22.97
2022-08-19T10:01:22.251Z,18.73
2022-08-19T10:06:45.673Z,19.88
2022-08-19T10:11:54.480Z,21.13
2022-08-19T10:16:59.359Z,17.70
2022-08-19T10:22:04.538Z,20.55
2022-08-19T10:27:06.769Z,23.10
2022-08-19T10:37:14.403Z,22.10
2022-08-19T10:42:19.484Z,20.30
2022-08-19T10:47:25.791Z,22.70
2022-08-19T10:52:34.643Z,16.45
2022-08-19T10:58:01.330Z,15.90
2022-08-19T11:03:03.176Z,21.88
2022-08-19T11:08:07.216Z,20.92
2022-08-19T11:13:25.495Z,19.20
2022-08-19T11:18:27.437Z,18.83
2022-08-19T11:23:29.133Z,11.35
2022-08-19T11:28:31.221Z,11.50
2022-08-19T11:33:33.580Z,11.10
2022-08-19T11:38:37.612Z,12.55
2022-08-19T11:43:40.649Z,10.20
2022-08-19T11:48:43.311Z,8.88
2022-08-19T11:53:45.446Z,12.10
2022-08-19T11:58:47.800Z,9.43
2022-08-19T12:03:52.031Z,9.10
2022-08-19T12:13:56.415Z,8.05
2022-08-19T12:18:59.947Z,8.88
2022-08-19T12:24:04.649Z,11.37
2022-08-19T12:29:06.362Z,11.93
2022-08-19T12:34:08.412Z,10.93
2022-08-19T12:39:11.113Z,10.55
2022-08-19T12:44:14.750Z,10.77
2022-08-19T12:49:35.914Z,11.63
2022-08-19T12:54:38.849Z,12.90
2022-08-19T12:59:40.556Z,11.68
2022-08-19T13:04:42.435Z,12.73
2022-08-19T13:09:44.275Z,12.25
2022-08-19T13:14:51.803Z,15.40
2022-08-19T13:19:53.615Z,13.02
2022-08-19T13:24:55.385Z,13.35
2022-08-19T13:30:15.704Z,13.45
2022-08-19T13:35:17.917Z,13.07
2022-08-19T13:40:24.684Z,14.32
2022-08-19T13:45:28.673Z,11.63
2022-08-19T13:50:32.453Z,11.63
2022-08-19T13:55:37.957Z,9.25
2022-08-19T14:00:43.422Z,10.23
2022-08-19T14:05:47.558Z,10.52
2022-08-19T14:10:49.529Z,11.65
2022-08-19T14:15:52.501Z,11.43
2022-08-19T14:20:54.753Z,10.13
2022-08-19T14:26:05.578Z,10.02
2022-08-19T14:31:07.337Z,9.73
2022-08-19T14:36:09.402Z,10.43
2022-08-19T14:41:21.424Z,8.70
2022-08-19T14:46:26.286Z,8.70
2022-08-19T14:51:30.112Z,10.40
2022-08-19T14:56:32.006Z,9.82
2022-08-19T15:01:33.955Z,9.35
2022-08-19T15:06:35.873Z,8.90
2022-08-19T15:11:39.267Z,9.38
2022-08-19T15:16:42.559Z,9.30
2022-08-19T15:21:44.389Z,8.65
2022-08-19T15:26:46.185Z,8.75
2022-08-19T15:31:47.961Z,9.25
2022-08-19T15:36:51.281Z,8.23
2022-08-19T15:41:53.097Z,6.60
2022-08-19T15:46:54.919Z,6.35
2022-08-19T15:51:57.993Z,5.60
2022-08-19T15:57:18.903Z,4.32
2022-08-19T16:02:41.981Z,3.70
2022-08-19T16:07:44.010Z,3.58
2022-08-19T16:12:45.796Z,3.20
2022-08-19T16:17:56.791Z,3.42
2022-08-19T16:22:59.949Z,3.15
2022-08-19T16:28:06.588Z,2.53
2022-08-19T16:33:10.179Z,3.38
2022-08-19T16:38:11.951Z,3.28
2022-08-19T16:43:13.711Z,2.80
2022-08-19T16:48:15.480Z,3.13
2022-08-19T16:53:29.017Z,3.78
2022-08-19T16:58:34.059Z,3.58
2022-08-19T17:03:37.576Z,3.10
2022-08-19T17:08:39.548Z,2.90
2022-08-19T17:13:41.269Z,3.45
2022-08-19T17:18:45.402Z,3.10
2022-08-19T17:23:47.207Z,2.92
2022-08-19T17:28:53.617Z,2.50
2022-08-19T17:33:58.124Z,3.25
2022-08-19T17:39:01.503Z,2.75
2022-08-19T17:44:03.837Z,2.73
2022-08-19T17:49:06.692Z,2.47
2022-08-19T17:54:10.836Z,2.60
2022-08-19T17:59:14.223Z,2.53
2022-08-19T18:04:17.170Z,2.90
2022-08-19T18:09:18.907Z,2.50
2022-08-19T18:14:32.988Z,2.83
2022-08-19T18:19:41.306Z,2.70
2022-08-19T18:24:45.845Z,2.60
2022-08-19T18:29:48.128Z,3.03
2022-08-19T18:34:49.836Z,2.60
2022-08-19T18:40:10.489Z,2.90
2022-08-19T18:45:31.436Z,2.90
2022-08-19T18:50:33.399Z,3.08
2022-08-19T18:55:35.254Z,3.13
2022-08-19T19:00:37.429Z,3.38
2022-08-19T19:05:44.178Z,3.15
2022-08-19T19:10:45.889Z,3.15
2022-08-19T19:15:48.899Z,2.67
2022-08-19T19:20:50.748Z,2.80
2022-08-19T19:25:52.538Z,2.70
2022-08-19T19:30:59.577Z,3.03
2022-08-19T19:36:01.402Z,2.92
2022-08-19T19:41:03.804Z,3.03
2022-08-19T19:46:05.814Z,3.10
2022-08-19T19:51:09.544Z,3.20
2022-08-19T19:56:12.991Z,2.72
2022-08-19T20:01:19.556Z,3.00
2022-08-19T20:06:24.670Z,2.80
2022-08-19T20:11:39.636Z,3.05
2022-08-19T20:16:43.470Z,3.30
2022-08-19T20:21:51.075Z,3.05
2022-08-19T20:26:53.855Z,2.85
2022-08-19T20:31:57.640Z,3.38
2022-08-19T20:37:01.137Z,3.10
2022-08-19T20:42:02.965Z,2.35
2022-08-19T20:47:04.825Z,2.67
2022-08-19T20:52:06.935Z,2.60
2022-08-19T20:57:08.780Z,2.50
2022-08-19T21:02:11.137Z,2.70
2022-08-19T21:07:15.283Z,2.63
2022-08-19T21:12:17.714Z,1.95
2022-08-19T21:17:19.403Z,2.08
2022-08-19T21:22:21.093Z,1.90
2022-08-19T21:27:22.964Z,2.10
2022-08-19T21:32:24.899Z,2.08
2022-08-19T21:37:26.735Z,1.80
2022-08-19T21:42:28.660Z,1.50
2022-08-19T21:47:30.425Z,1.52
2022-08-19T21:52:32.260Z,1.40
2022-08-19T21:57:34.136Z,1.20
2022-08-19T22:02:37.833Z,1.27
2022-08-19T22:07:39.749Z,1.37
2022-08-19T22:12:46.089Z,0.93
2022-08-19T22:17:54.261Z,1.33
2022-08-19T22:23:01.030Z,1.20
2022-08-19T22:28:06.077Z,1.10
2022-08-19T22:33:11.601Z,1.25
2022-08-19T22:38:14.371Z,1.27
2022-08-19T22:43:22.247Z,1.25
2022-08-19T22:48:27.979Z,1.83
2022-08-19T22:53:29.810Z,1.20
2022-08-19T22:58:31.944Z,1.35
2022-08-19T23:03:34.908Z,1.50
2022-08-19T23:08:39.686Z,1.48
2022-08-19T23:13:42.206Z,1.48
2022-08-19T23:18:45.314Z,1.60
2022-08-19T23:23:47.033Z,1.90
2022-08-19T23:29:07.259Z,1.80
2022-08-19T23:34:09.383Z,1.80
2022-08-19T23:39:11.113Z,1.80
2022-08-19T23:44:14.563Z,1.80
2022-08-19T23:49:16.774Z,2.45
2022-08-19T23:54:18.472Z,2.00
2022-08-19T23:59:20.425Z,2.20
